createdAt,value
2022-10-22T00:00:43.855Z,5.90
2022-10-22T00:03:46.305Z,5.68
2022-10-22T00:06:48.506Z,5.57
2022-10-22T00:09:51.058Z,6.05
2022-10-22T00:12:53.242Z,5.47
2022-10-22T00:15:55.630Z,5.25
2022-10-22T00:18:57.755Z,4.78
2022-10-22T00:22:00.187Z,5.68
2022-10-22T00:25:02.247Z,8.43
2022-10-22T00:28:04.884Z,4.95
2022-10-22T00:31:07.195Z,5.07
2022-10-22T00:34:09.575Z,5.82
2022-10-22T00:37:11.679Z,5.87
2022-10-22T00:40:14.201Z,6.37
2022-10-22T00:43:18.841Z,5.50
2022-10-22T00:46:21.415Z,4.87
2022-10-22T00:49:23.578Z,4.87
2022-10-22T00:52:26.163Z,5.18
2022-10-22T00:55:29.657Z,5.35
2022-10-22T00:58:36.049Z,5.47
2022-10-22T01:01:38.143Z,5.25
2022-10-22T01:04:40.941Z,5.62
2022-10-22T01:07:47.879Z,5.28
2022-10-22T01:11:35.238Z,5.05
2022-10-22T01:14:58.261Z,5.07
2022-10-22T01:18:18.171Z,4.87
2022-10-22T01:21:43.893Z,5.00
2022-10-22T01:24:55.368Z,5.00
2022-10-22T01:28:06.080Z,5.53
2022-10-22T01:31:10.807Z,4.93
2022-10-22T01:34:17.015Z,5.15
2022-10-22T01:37:22.979Z,5.28
2022-10-22T01:40:27.025Z,5.20
2022-10-22T01:43:29.478Z,5.07
2022-10-22T01:46:32.432Z,6.18
2022-10-22T01:49:49.914Z,4.62
2022-10-22T01:53:02.855Z,5.30
2022-10-22T01:56:36.392Z,5.00
2022-10-22T01:59:53.600Z,4.95
2022-10-22T02:03:18.714Z,5.75
2022-10-22T02:06:26.083Z,4.90
2022-10-22T02:09:30.995Z,4.87
2022-10-22T02:12:35.040Z,4.68
2022-10-22T02:15:39.867Z,5.20
2022-10-22T02:18:46.623Z,5.35
2022-10-22T02:21:49.501Z,5.03
2022-10-22T02:24:52.031Z,5.93
2022-10-22T02:28:11.214Z,5.25
2022-10-22T02:31:23.819Z,5.72
2022-10-22T02:34:30.044Z,5.55
2022-10-22T02:37:32.708Z,5.47
2022-10-22T02:40:35.236Z,5.47
2022-10-22T02:43:48.617Z,5.20
2022-10-22T02:46:51.093Z,4.93
2022-10-22T02:49:53.474Z,5.45
2022-10-22T02:52:55.579Z,5.45
2022-10-22T02:55:58.590Z,5.70
2022-10-22T02:59:03.035Z,5.47
2022-10-22T03:02:05.414Z,5.32
2022-10-22T03:05:08.114Z,5.85
2022-10-22T03:08:10.505Z,5.07
2022-10-22T03:11:12.619Z,5.82
2022-10-22T03:14:15.042Z,5.20
2022-10-22T03:17:17.200Z,5.45
2022-10-22T03:20:19.608Z,6.03
2022-10-22T03:23:21.700Z,6.20
2022-10-22T03:26:25.175Z,5.80
2022-10-22T03:29:28.237Z,5.25
2022-10-22T03:32:30.648Z,5.87
2022-10-22T03:35:38.321Z,6.03
2022-10-22T03:38:41.236Z,6.10
2022-10-22T03:41:44.376Z,6.15
2022-10-22T03:44:47.098Z,5.97
2022-10-22T03:47:49.174Z,6.78
2022-10-22T03:50:51.579Z,6.22
2022-10-22T03:53:54.179Z,5.97
2022-10-22T03:56:56.583Z,6.62
2022-10-22T03:59:58.669Z,5.80
2022-10-22T04:03:01.024Z,6.03
2022-10-22T04:06:06.191Z,6.72
2022-10-22T04:09:08.466Z,5.95
2022-10-22T04:12:10.968Z,5.57
2022-10-22T04:15:13.070Z,6.70
2022-10-22T04:18:15.468Z,5.62
2022-10-22T04:21:19.448Z,6.25
2022-10-22T04:24:21.815Z,5.87
2022-10-22T04:27:23.951Z,6.30
2022-10-22T04:30:27.057Z,6.35
2022-10-22T04:33:29.175Z,5.78
2022-10-22T04:36:31.593Z,5.87
2022-10-22T04:39:33.698Z,5.80
2022-10-22T04:42:36.078Z,6.40
2022-10-22T04:45:38.194Z,6.85
2022-10-22T04:48:42.193Z,5.95
2022-10-22T04:51:44.279Z,6.47
2022-10-22T04:54:46.927Z,5.45
2022-10-22T04:57:49.078Z,5.78
2022-10-22T05:00:51.528Z,6.82
2022-10-22T05:03:55.854Z,6.40
2022-10-22T05:06:58.287Z,5.90
2022-10-22T05:10:02.297Z,6.15
2022-10-22T05:13:04.703Z,6.25
2022-10-22T05:16:07.003Z,6.30
2022-10-22T05:19:17.320Z,6.53
2022-10-22T05:22:19.465Z,5.72
2022-10-22T05:25:21.850Z,5.82
2022-10-22T05:28:24.023Z,6.43
2022-10-22T05:31:28.738Z,5.68
2022-10-22T05:34:30.841Z,6.25
2022-10-22T05:37:33.242Z,6.35
2022-10-22T05:40:35.342Z,6.12
2022-10-22T05:43:38.164Z,6.43
2022-10-22T05:46:40.772Z,6.22
2022-10-22T05:49:43.169Z,6.72
2022-10-22T05:52:45.277Z,5.95
2022-10-22T05:55:47.739Z,6.43
2022-10-22T05:58:50.236Z,6.53
2022-10-22T06:01:52.706Z,6.72
2022-10-22T06:04:55.177Z,7.15
2022-10-22T06:07:57.808Z,6.65
2022-10-22T06:11:00.359Z,5.50
2022-10-22T06:14:03.187Z,6.75
2022-10-22T06:17:05.577Z,6.20
2022-10-22T06:20:08.536Z,6.22
2022-10-22T06:23:11.232Z,6.22
2022-10-22T06:26:13.382Z,6.28
2022-10-22T06:29:15.824Z,6.53
2022-10-22T06:32:17.907Z,6.25
2022-10-22T06:35:20.320Z,7.18
2022-10-22T06:38:22.456Z,6.50
2022-10-22T06:41:28.589Z,7.37
2022-10-22T06:44:32.774Z,5.75
2022-10-22T06:47:35.165Z,6.35
2022-10-22T06:50:37.353Z,5.78
2022-10-22T06:53:40.461Z,7.12
2022-10-22T06:56:42.753Z,6.37
2022-10-22T06:59:46.472Z,7.20
2022-10-22T07:02:57.605Z,6.60
2022-10-22T07:06:07.447Z,6.62
2022-10-22T07:09:09.613Z,7.13
2022-10-22T07:12:12.537Z,7.78
2022-10-22T07:15:14.815Z,6.22
2022-10-22T07:18:17.311Z,6.50
2022-10-22T07:21:20.472Z,7.57
2022-10-22T07:24:22.943Z,7.20
2022-10-22T07:27:25.083Z,6.87
2022-10-22T07:30:27.554Z,7.05
2022-10-22T07:33:29.687Z,6.72
2022-10-22T07:36:32.280Z,6.72
2022-10-22T07:39:34.543Z,7.07
2022-10-22T07:42:36.942Z,7.57
2022-10-22T07:45:39.192Z,7.78
2022-10-22T07:48:41.923Z,7.50
2022-10-22T07:51:44.050Z,8.10
2022-10-22T07:54:46.485Z,8.32
2022-10-22T07:57:48.578Z,9.07
2022-10-22T08:00:54.884Z,7.62
2022-10-22T08:03:57.315Z,8.10
2022-10-22T08:07:00.594Z,9.05
2022-10-22T08:10:03.539Z,8.02
2022-10-22T08:13:06.723Z,8.43
2022-10-22T08:16:09.190Z,8.48
2022-10-22T08:19:11.448Z,8.23
2022-10-22T08:22:13.977Z,9.02
2022-10-22T08:25:18.042Z,8.43
2022-10-22T08:28:22.069Z,8.73
2022-10-22T08:31:24.581Z,9.43
2022-10-22T08:34:27.055Z,9.10
2022-10-22T08:37:29.200Z,8.23
2022-10-22T08:40:39.934Z,9.52
2022-10-22T08:44:10.853Z,9.30
2022-10-22T08:47:44.360Z,8.95
2022-10-22T08:50:50.038Z,9.00
2022-10-22T08:54:30.145Z,9.50
2022-10-22T08:58:21.878Z,9.45
2022-10-22T09:01:34.237Z,8.95
2022-10-22T09:05:02.708Z,9.82
2022-10-22T09:08:08.836Z,10.07
2022-10-22T09:11:10.945Z,10.05
2022-10-22T09:14:19.704Z,9.63
2022-10-22T09:17:38.772Z,10.68
2022-10-22T09:20:54.705Z,10.57
2022-10-22T09:24:19.445Z,9.70
2022-10-22T09:27:28.335Z,11.27
2022-10-22T09:33:34.407Z,11.18
2022-10-22T09:36:37.940Z,10.30
2022-10-22T09:39:44.833Z,10.65
2022-10-22T09:42:47.345Z,11.00
2022-10-22T09:45:58.024Z,10.82
2022-10-22T09:49:17.672Z,12.45
2022-10-22T09:52:30.401Z,11.57
2022-10-22T09:55:32.608Z,11.35
2022-10-22T09:58:43.889Z,12.13
2022-10-22T10:01:46.065Z,11.40
2022-10-22T10:04:52.808Z,11.95
2022-10-22T10:07:55.017Z,11.50
2022-10-22T10:11:37.274Z,11.25
2022-10-22T10:15:01.985Z,11.73
2022-10-22T10:18:33.051Z,12.05
2022-10-22T10:21:41.042Z,11.07
2022-10-22T10:24:58.779Z,11.63
2022-10-22T10:28:06.695Z,11.73
2022-10-22T10:31:32.474Z,11.15
2022-10-22T10:34:54.307Z,11.60
2022-10-22T10:38:14.683Z,11.05
2022-10-22T10:41:39.870Z,11.27
2022-10-22T10:45:03.519Z,11.23
2022-10-22T10:48:33.480Z,10.70
2022-10-22T10:51:53.316Z,11.57
2022-10-22T10:55:13.814Z,11.95
2022-10-22T10:58:25.682Z,12.10
2022-10-22T11:01:51.860Z,11.70
2022-10-22T11:05:28.630Z,11.27
2022-10-22T11:08:35.934Z,11.52
2022-10-22T11:11:50.349Z,12.10
2022-10-22T11:15:13.453Z,12.32
2022-10-22T11:18:27.515Z,12.10
2022-10-22T11:21:39.788Z,11.40
2022-10-22T11:24:53.089Z,12.93
2022-10-22T11:28:09.242Z,12.63
2022-10-22T11:31:16.838Z,12.68
2022-10-22T11:34:33.792Z,12.23
2022-10-22T11:37:39.104Z,12.20
2022-10-22T11:40:54.700Z,12.73
2022-10-22T11:43:57.706Z,13.10
2022-10-22T11:47:15.589Z,11.90
2022-10-22T11:50:18.065Z,13.63
2022-10-22T11:53:30.890Z,12.45
2022-10-22T11:56:38.886Z,13.18
2022-10-22T11:59:51.528Z,11.60
2022-10-22T12:03:05.943Z,12.02
2022-10-22T12:06:12.059Z,12.40
2022-10-22T12:09:14.315Z,11.68
2022-10-22T12:12:21.018Z,12.10
2022-10-22T12:15:27.000Z,12.23
2022-10-22T12:18:41.383Z,13.35
2022-10-22T12:21:48.714Z,14.27
2022-10-22T12:24:55.398Z,11.30
2022-10-22T12:28:01.034Z,11.32
2022-10-22T12:31:03.551Z,11.05
2022-10-22T12:34:06.426Z,12.07
2022-10-22T12:37:11.711Z,11.75
2022-10-22T12:40:21.642Z,11.65
2022-10-22T12:43:29.974Z,12.00
2022-10-22T12:46:34.731Z,11.27
2022-10-22T12:49:40.791Z,11.52
2022-10-22T12:52:43.442Z,11.68
2022-10-22T12:55:51.990Z,12.60
2022-10-22T12:59:12.683Z,12.82
2022-10-22T13:02:21.927Z,12.90
2022-10-22T13:05:27.610Z,13.60
2022-10-22T13:08:30.107Z,12.13
2022-10-22T13:11:34.945Z,12.15
2022-10-22T13:14:38.619Z,11.88
2022-10-22T13:17:42.334Z,13.52
2022-10-22T13:21:02.519Z,12.52
2022-10-22T13:24:24.938Z,12.82
2022-10-22T13:27:28.810Z,11.52
2022-10-22T13:30:36.376Z,12.52
2022-10-22T13:33:41.903Z,12.43
2022-10-22T13:36:44.052Z,11.85
2022-10-22T13:39:46.474Z,12.43
2022-10-22T13:42:48.614Z,11.40
2022-10-22T13:46:00.541Z,11.88
2022-10-22T13:49:04.350Z,12.43
2022-10-22T13:52:06.843Z,12.18
2022-10-22T13:55:21.699Z,12.60
2022-10-22T13:58:25.159Z,11.57
2022-10-22T14:01:27.961Z,11.88
2022-10-22T14:04:30.366Z,11.75
2022-10-22T14:07:33.420Z,10.73
2022-10-22T14:10:35.873Z,12.57
2022-10-22T14:13:38.398Z,11.57
2022-10-22T14:16:41.073Z,10.70
2022-10-22T14:19:45.697Z,10.93
2022-10-22T14:22:49.789Z,10.68
2022-10-22T14:25:52.223Z,11.05
2022-10-22T14:29:11.521Z,12.15
2022-10-22T14:32:16.811Z,13.98
2022-10-22T14:35:22.248Z,13.93
2022-10-22T14:38:24.393Z,13.10
2022-10-22T14:41:29.004Z,12.23
2022-10-22T14:44:31.168Z,11.88
2022-10-22T14:47:33.641Z,12.20
2022-10-22T14:50:35.764Z,11.70
2022-10-22T14:53:38.200Z,12.52
2022-10-22T14:56:40.444Z,12.10
2022-10-22T14:59:42.949Z,13.65
2022-10-22T15:02:45.963Z,11.95
2022-10-22T15:05:53.666Z,12.07
2022-10-22T15:08:55.811Z,12.20
2022-10-22T15:11:58.259Z,11.60
2022-10-22T15:15:00.408Z,12.18
2022-10-22T15:18:02.914Z,11.65
2022-10-22T15:21:08.408Z,11.77
2022-10-22T15:24:12.918Z,11.45
2022-10-22T15:27:15.794Z,12.73
2022-10-22T15:30:18.274Z,11.38
2022-10-22T15:33:20.463Z,11.18
2022-10-22T15:36:22.898Z,11.43
2022-10-22T15:39:25.702Z,11.60
2022-10-22T15:42:28.194Z,11.55
2022-10-22T15:45:30.304Z,11.43
2022-10-22T15:48:33.587Z,11.50
2022-10-22T15:51:35.774Z,11.43
2022-10-22T15:54:38.241Z,10.45
2022-10-22T15:57:40.815Z,11.07
2022-10-22T16:00:43.643Z,12.63
2022-10-22T16:03:46.170Z,10.93
2022-10-22T16:06:49.777Z,11.43
2022-10-22T16:09:56.613Z,11.75
2022-10-22T16:12:58.819Z,11.48
2022-10-22T16:16:05.963Z,11.73
2022-10-22T16:19:10.456Z,11.68
2022-10-22T16:22:13.830Z,12.02
2022-10-22T16:25:16.022Z,12.35
2022-10-22T16:28:18.856Z,12.70
2022-10-22T16:31:21.035Z,12.27
2022-10-22T16:34:25.820Z,13.07
2022-10-22T16:37:28.120Z,13.25
2022-10-22T16:40:30.596Z,13.05
2022-10-22T16:43:32.792Z,13.85
2022-10-22T16:46:38.295Z,13.80
2022-10-22T16:49:40.454Z,14.35
2022-10-22T16:52:43.008Z,15.02
2022-10-22T16:55:45.199Z,13.52
2022-10-22T16:58:57.863Z,14.77
2022-10-22T17:02:00.175Z,14.50
2022-10-22T17:05:02.934Z,15.48
2022-10-22T17:08:07.629Z,16.35
2022-10-22T17:11:12.681Z,16.90
2022-10-22T17:14:14.813Z,16.73
2022-10-22T17:17:17.243Z,13.98
2022-10-22T17:20:20.190Z,15.70
2022-10-22T17:23:22.654Z,15.95
2022-10-22T17:26:26.831Z,15.55
2022-10-22T17:29:29.528Z,15.02
2022-10-22T17:32:32.143Z,14.95
2022-10-22T17:35:35.854Z,13.68
2022-10-22T17:38:38.941Z,15.25
2022-10-22T17:41:41.390Z,15.23
2022-10-22T17:44:43.484Z,13.52
2022-10-22T17:47:45.934Z,14.32
2022-10-22T17:50:50.570Z,13.38
2022-10-22T17:53:54.724Z,14.05
2022-10-22T17:56:56.850Z,13.30
2022-10-22T17:59:59.314Z,15.07
2022-10-22T18:03:01.601Z,14.73
2022-10-22T18:06:07.295Z,14.82
2022-10-22T18:09:13.214Z,15.25
2022-10-22T18:12:18.062Z,14.90
2022-10-22T18:15:20.264Z,15.95
2022-10-22T18:18:23.846Z,14.85
2022-10-22T18:21:28.236Z,15.57
2022-10-22T18:24:30.693Z,14.73
2022-10-22T18:27:33.713Z,15.00
2022-10-22T18:30:40.765Z,15.38
2022-10-22T18:33:42.988Z,15.43
2022-10-22T18:36:45.479Z,14.13
2022-10-22T18:39:47.599Z,14.02
2022-10-22T18:42:50.070Z,15.90
2022-10-22T18:45:52.251Z,16.00
2022-10-22T18:48:58.740Z,16.87
2022-10-22T18:52:01.118Z,15.90
2022-10-22T18:55:03.932Z,16.10
2022-10-22T18:58:06.467Z,16.12
2022-10-22T19:01:20.626Z,16.90
2022-10-22T19:04:23.012Z,16.50
2022-10-22T19:07:25.533Z,16.25
2022-10-22T19:10:27.690Z,16.15
2022-10-22T19:13:30.149Z,15.98
2022-10-22T19:16:34.719Z,17.33
2022-10-22T19:19:37.133Z,16.25
2022-10-22T19:22:39.309Z,16.00
2022-10-22T19:25:41.806Z,16.75
2022-10-22T19:28:45.211Z,15.70
2022-10-22T19:31:50.559Z,16.92
2022-10-22T19:34:52.775Z,16.90
2022-10-22T19:37:55.234Z,16.20
2022-10-22T19:40:57.445Z,17.02
2022-10-22T19:44:00.766Z,17.17
2022-10-22T19:47:02.911Z,16.10
2022-10-22T19:50:05.885Z,16.08
2022-10-22T19:53:08.000Z,17.48
2022-10-22T19:56:11.802Z,16.83
2022-10-22T19:59:15.174Z,16.35
2022-10-22T20:02:18.602Z,16.12
2022-10-22T20:05:21.011Z,16.42
2022-10-22T20:08:23.163Z,16.85
2022-10-22T20:11:30.085Z,16.87
2022-10-22T20:14:32.979Z,16.30
2022-10-22T20:17:35.479Z,16.12
2022-10-22T20:20:37.836Z,17.62
2022-10-22T20:23:40.432Z,17.83
2022-10-22T20:26:45.414Z,17.23
2022-10-22T20:29:49.942Z,17.80
2022-10-22T20:32:52.038Z,17.62
2022-10-22T20:36:02.943Z,17.08
2022-10-22T20:39:08.161Z,18.15
2022-10-22T20:42:10.773Z,16.75
2022-10-22T20:45:12.904Z,17.42
2022-10-22T20:48:15.428Z,16.65
2022-10-22T20:51:17.584Z,18.20
2022-10-22T20:54:20.166Z,17.23
2022-10-22T20:57:22.375Z,18.27
2022-10-22T21:00:24.868Z,17.67
2022-10-22T21:03:27.085Z,16.40
2022-10-22T21:06:29.948Z,16.70
2022-10-22T21:09:34.183Z,17.30
2022-10-22T21:12:41.652Z,17.67
2022-10-22T21:15:43.984Z,16.35
2022-10-22T21:18:47.187Z,16.05
2022-10-22T21:21:49.751Z,16.42
2022-10-22T21:24:52.210Z,15.75
2022-10-22T21:27:54.362Z,16.77
2022-10-22T21:30:56.779Z,16.52
2022-10-22T21:33:58.931Z,16.10
2022-10-22T21:37:01.354Z,16.40
2022-10-22T21:40:04.363Z,17.08
2022-10-22T21:43:06.819Z,17.25
2022-10-22T21:46:14.426Z,18.17
2022-10-22T21:49:16.927Z,16.93
2022-10-22T21:52:19.223Z,15.85
2022-10-22T21:55:21.733Z,16.25
2022-10-22T21:58:23.930Z,16.50
2022-10-22T22:01:26.951Z,17.08
2022-10-22T22:04:29.492Z,15.73
2022-10-22T22:07:34.796Z,15.80
2022-10-22T22:10:37.350Z,16.33
2022-10-22T22:13:39.968Z,17.65
2022-10-22T22:16:42.413Z,16.17
2022-10-22T22:19:44.563Z,17.25
2022-10-22T22:22:47.011Z,16.85
2022-10-22T22:25:49.279Z,16.45
2022-10-22T22:28:51.753Z,17.58
2022-10-22T22:31:53.947Z,17.23
2022-10-22T22:34:56.464Z,16.42
2022-10-22T22:37:58.958Z,17.05
2022-10-22T22:41:01.816Z,17.33
2022-10-22T22:44:04.594Z,15.88
2022-10-22T22:47:07.085Z,16.58
2022-10-22T22:50:09.307Z,17.23
2022-10-22T22:53:11.745Z,17.08
2022-10-22T22:56:18.072Z,16.50
2022-10-22T22:59:21.927Z,15.93
2022-10-22T23:02:24.120Z,15.57
2022-10-22T23:05:26.652Z,16.17
2022-10-22T23:08:28.790Z,16.73
2022-10-22T23:11:31.428Z,15.27
2022-10-22T23:14:33.570Z,15.75
2022-10-22T23:20:38.484Z,16.23
2022-10-22T23:23:50.380Z,15.65
2022-10-22T23:26:54.430Z,15.65
2022-10-22T23:29:56.899Z,14.30
2022-10-22T23:32:59.124Z,14.65
2022-10-22T23:36:02.174Z,15.88
2022-10-22T23:39:09.844Z,14.70
2022-10-22T23:42:12.490Z,14.90
2022-10-22T23:45:14.846Z,15.73
2022-10-22T23:48:17.609Z,14.73
2022-10-22T23:51:20.683Z,15.00
2022-10-22T23:54:23.425Z,16.15
2022-10-22T23:57:25.663Z,13.38
